createdAt,value
2018-01-24T00:01:41.903Z,17.03
2018-01-24T00:04:09.449Z,15.43
2018-01-24T00:06:37.774Z,15.40
2018-01-24T00:09:05.297Z,21.47
2018-01-24T00:11:33.616Z,16.80
2018-01-24T00:14:01.163Z,15.53
2018-01-24T00:16:28.743Z,13.27
2018-01-24T00:18:56.275Z,16.83
2018-01-24T00:21:23.826Z,12.63
2018-01-24T00:23:51.355Z,16.70
2018-01-24T00:26:19.682Z,15.67
2018-01-24T00:28:47.205Z,15.87
2018-01-24T00:31:15.553Z,14.47
2018-01-24T00:33:43.081Z,15.90
2018-01-24T00:36:10.632Z,20.80
2018-01-24T00:38:38.156Z,20.23
2018-01-24T00:41:06.469Z,13.97
2018-01-24T00:43:34.006Z,31.50
2018-01-24T00:46:01.553Z,13.90
2018-01-24T00:48:29.862Z,26.47
2018-01-24T00:50:57.420Z,19.07
2018-01-24T00:53:24.950Z,16.67
2018-01-24T00:55:53.269Z,21.90
2018-01-24T00:58:20.803Z,20.60
2018-01-24T01:00:48.384Z,22.73
2018-01-24T01:03:15.906Z,22.10
2018-01-24T01:05:44.219Z,23.20
2018-01-24T01:08:11.826Z,36.30
2018-01-24T01:10:39.395Z,31.33
2018-01-24T01:13:07.697Z,22.63
2018-01-24T01:15:35.249Z,29.97
2018-01-24T01:18:03.541Z,15.60
2018-01-24T01:20:31.093Z,22.43
2018-01-24T01:22:58.627Z,19.83
2018-01-24T01:25:26.191Z,16.63
2018-01-24T01:27:54.557Z,16.47
2018-01-24T01:30:22.114Z,25.50
2018-01-24T01:32:49.706Z,22.37
2018-01-24T01:35:18.052Z,21.87
2018-01-24T01:37:45.574Z,15.23
2018-01-24T01:40:13.129Z,20.97
2018-01-24T01:42:40.657Z,21.80
2018-01-24T01:45:09.001Z,23.10
2018-01-24T01:47:36.522Z,19.40
2018-01-24T01:50:04.078Z,19.33
2018-01-24T01:52:31.633Z,25.67
2018-01-24T01:54:59.177Z,24.87
2018-01-24T01:57:27.498Z,21.73
2018-01-24T01:59:55.033Z,19.63
2018-01-24T02:02:22.581Z,25.27
2018-01-24T02:04:50.202Z,23.37
2018-01-24T02:07:17.762Z,15.37
2018-01-24T02:09:45.290Z,25.00
2018-01-24T02:12:12.833Z,18.73
2018-01-24T02:14:40.376Z,17.53
2018-01-24T02:17:08.686Z,21.63
2018-01-24T02:19:36.213Z,17.10
2018-01-24T02:22:04.530Z,23.50
2018-01-24T02:24:32.061Z,23.73
2018-01-24T02:26:59.621Z,17.80
2018-01-24T02:29:27.152Z,20.50
2018-01-24T02:31:55.473Z,14.67
2018-01-24T02:34:23.009Z,21.03
2018-01-24T02:36:50.558Z,15.20
2018-01-24T02:39:18.967Z,16.43
2018-01-24T02:41:46.547Z,20.37
2018-01-24T02:44:14.078Z,19.47
2018-01-24T02:46:41.681Z,18.63
2018-01-24T02:49:09.215Z,17.07
2018-01-24T02:51:36.762Z,16.70
2018-01-24T02:54:04.287Z,21.40
2018-01-24T02:56:32.637Z,23.53
2018-01-24T02:59:00.195Z,22.97
2018-01-24T03:01:27.743Z,21.33
2018-01-24T03:03:55.295Z,22.30
2018-01-24T03:06:22.849Z,27.73
2018-01-24T03:08:50.386Z,17.57
2018-01-24T03:11:17.958Z,20.63
2018-01-24T03:13:45.524Z,18.43
2018-01-24T03:16:13.084Z,20.13
2018-01-24T03:18:40.609Z,22.90
2018-01-24T03:21:08.182Z,28.43
2018-01-24T03:23:36.478Z,15.20
2018-01-24T03:28:57.714Z,20.20
2018-01-24T03:31:25.266Z,19.57
2018-01-24T03:33:52.805Z,26.10
2018-01-24T03:36:21.130Z,21.40
2018-01-24T03:38:48.649Z,27.00
2018-01-24T03:41:16.209Z,21.63
2018-01-24T03:43:43.745Z,20.73
2018-01-24T03:46:11.306Z,21.20
2018-01-24T03:48:38.841Z,26.63
2018-01-24T03:51:06.389Z,14.27
2018-01-24T03:53:33.923Z,22.83
2018-01-24T03:56:01.473Z,18.03
2018-01-24T03:58:29.006Z,18.40
2018-01-24T04:00:57.327Z,21.53
2018-01-24T04:03:24.857Z,19.30
2018-01-24T04:05:53.177Z,15.80
2018-01-24T04:08:20.718Z,16.07
2018-01-24T04:10:48.274Z,21.33
2018-01-24T04:13:15.802Z,19.00
2018-01-24T04:15:44.098Z,26.93
2018-01-24T04:18:11.646Z,14.83
2018-01-24T04:20:39.933Z,15.40
2018-01-24T04:23:07.485Z,15.00
2018-01-24T04:25:35.779Z,14.87
2018-01-24T04:28:03.334Z,13.60
2018-01-24T04:30:30.863Z,14.30
2018-01-24T04:32:58.413Z,10.43
2018-01-24T04:35:25.938Z,13.47
2018-01-24T04:37:53.492Z,11.97
2018-01-24T04:40:21.018Z,11.60
2018-01-24T04:42:49.337Z,18.60
2018-01-24T04:45:16.869Z,11.07
2018-01-24T04:47:44.426Z,10.90
2018-01-24T04:50:11.954Z,20.53
2018-01-24T04:52:39.506Z,14.80
2018-01-24T04:55:07.033Z,11.17
2018-01-24T04:57:34.597Z,17.00
2018-01-24T05:00:02.123Z,13.13
2018-01-24T05:02:29.673Z,10.63
2018-01-24T05:04:57.969Z,11.03
2018-01-24T05:07:25.522Z,13.90
2018-01-24T05:09:53.054Z,10.80
2018-01-24T05:12:20.620Z,13.07
2018-01-24T05:14:48.913Z,13.73
2018-01-24T05:17:16.470Z,12.00
2018-01-24T05:19:44.761Z,13.03
2018-01-24T05:22:12.316Z,14.37
2018-01-24T05:24:39.849Z,11.40
2018-01-24T05:27:07.406Z,11.43
2018-01-24T05:29:34.930Z,12.13
2018-01-24T05:32:02.478Z,13.23
2018-01-24T05:34:30.005Z,19.33
2018-01-24T05:36:57.558Z,11.83
2018-01-24T05:39:25.862Z,11.80
2018-01-24T05:41:53.414Z,12.70
2018-01-24T05:44:20.950Z,11.90
2018-01-24T05:46:49.262Z,9.13
2018-01-24T05:49:16.790Z,10.23
2018-01-24T05:51:45.078Z,9.17
2018-01-24T05:54:12.630Z,10.27
2018-01-24T05:56:40.923Z,11.40
2018-01-24T05:59:08.477Z,18.80
2018-01-24T06:01:36.006Z,12.07
2018-01-24T06:04:03.554Z,8.77
2018-01-24T06:06:31.084Z,10.33
2018-01-24T06:08:58.639Z,18.43
2018-01-24T06:11:26.162Z,12.17
2018-01-24T06:13:54.474Z,9.30
2018-01-24T06:16:22.024Z,12.90
2018-01-24T06:18:49.571Z,12.63
2018-01-24T06:21:17.097Z,10.50
2018-01-24T06:23:44.649Z,13.27
2018-01-24T06:26:12.178Z,14.27
2018-01-24T06:28:39.727Z,11.93
2018-01-24T06:52:09.362Z,13.80
2018-01-24T06:54:36.884Z,14.93
2018-01-24T06:57:04.445Z,11.23
2018-01-24T06:59:31.974Z,13.50
2018-01-24T07:01:59.501Z,12.43
2018-01-24T07:04:27.053Z,12.40
2018-01-24T07:06:55.400Z,14.33
2018-01-24T07:09:22.910Z,10.17
2018-01-24T07:11:50.450Z,19.80
2018-01-24T07:14:30.699Z,11.20
2018-01-24T07:16:58.990Z,18.60
2018-01-24T07:19:26.546Z,17.43
2018-01-24T07:21:54.840Z,13.70
2018-01-24T07:24:22.396Z,12.53
2018-01-24T07:26:49.914Z,9.33
2018-01-24T07:29:17.461Z,15.70
2018-01-24T07:31:44.982Z,13.17
2018-01-24T07:34:12.536Z,15.00
2018-01-24T07:36:40.069Z,15.07
2018-01-24T07:39:08.389Z,14.30
2018-01-24T07:41:35.917Z,17.20
2018-01-24T07:44:04.242Z,15.13
2018-01-24T07:46:31.802Z,15.40
2018-01-24T07:48:59.350Z,16.87
2018-01-24T07:51:26.874Z,16.37
2018-01-24T07:53:55.186Z,14.27
2018-01-24T07:56:22.718Z,14.93
2018-01-24T07:58:50.273Z,22.00
2018-01-24T08:01:17.806Z,15.20
2018-01-24T08:03:45.366Z,32.97
2018-01-24T08:06:12.889Z,16.40
2018-01-24T08:08:40.434Z,22.60
2018-01-24T08:11:07.956Z,24.87
2018-01-24T08:13:36.274Z,16.90
2018-01-24T08:16:03.806Z,18.20
2018-01-24T08:18:31.365Z,17.50
2018-01-24T08:20:59.654Z,21.23
2018-01-24T08:23:27.205Z,18.87
2018-01-24T08:25:54.734Z,20.17
2018-01-24T08:28:22.278Z,16.63
2018-01-24T08:30:49.813Z,26.07
2018-01-24T08:33:17.379Z,36.57
2018-01-24T08:35:44.908Z,25.07
2018-01-24T08:38:12.462Z,20.33
2018-01-24T08:40:40.001Z,21.23
2018-01-24T08:43:08.324Z,22.27
2018-01-24T08:45:35.850Z,25.27
2018-01-24T08:48:04.158Z,23.63
2018-01-24T08:50:31.676Z,20.30
2018-01-24T08:53:00.002Z,19.43
2018-01-24T08:55:27.541Z,23.07
2018-01-24T08:57:55.102Z,20.50
2018-01-24T09:00:40.201Z,21.67
2018-01-24T09:03:25.442Z,24.27
2018-01-24T09:06:10.537Z,12.80
2018-01-24T09:08:55.885Z,14.13
2018-01-24T09:11:41.069Z,14.73
2018-01-24T09:14:26.014Z,13.17
2018-01-24T09:17:11.921Z,17.43
2018-01-24T09:19:56.978Z,15.77
2018-01-24T09:22:42.958Z,18.03
2018-01-24T09:25:11.266Z,13.93
2018-01-24T09:27:38.790Z,15.30
2018-01-24T09:30:06.338Z,14.70
2018-01-24T09:32:33.870Z,13.90
2018-01-24T09:35:01.421Z,13.33
2018-01-24T09:37:28.949Z,11.17
2018-01-24T09:39:57.253Z,12.40
2018-01-24T09:42:24.778Z,11.70
2018-01-24T09:44:53.101Z,11.63
2018-01-24T09:47:20.621Z,9.30
2018-01-24T09:49:48.934Z,12.03
2018-01-24T09:52:16.458Z,17.03
2018-01-24T09:54:44.770Z,10.63
2018-01-24T09:57:12.298Z,10.03
2018-01-24T09:59:40.613Z,7.60
2018-01-24T10:02:08.129Z,9.63
2018-01-24T10:04:36.439Z,7.53
2018-01-24T10:07:03.974Z,15.17
2018-01-24T10:09:31.497Z,9.80
2018-01-24T10:11:59.046Z,6.77
2018-01-24T10:14:26.566Z,8.60
2018-01-24T10:16:54.108Z,7.67
2018-01-24T10:19:22.399Z,6.33
2018-01-24T10:21:49.947Z,8.60
2018-01-24T10:24:17.474Z,9.00
2018-01-24T10:26:45.033Z,7.23
2018-01-24T10:29:12.561Z,9.13
2018-01-24T10:31:40.108Z,7.80
2018-01-24T10:34:07.631Z,6.43
2018-01-24T10:36:35.947Z,8.33
2018-01-24T10:39:03.469Z,9.37
2018-01-24T10:41:31.786Z,10.47
2018-01-24T10:43:59.301Z,9.33
2018-01-24T10:46:27.617Z,7.10
2018-01-24T10:48:55.154Z,9.17
2018-01-24T10:51:22.712Z,7.97
2018-01-24T10:53:50.264Z,7.33
2018-01-24T10:56:18.578Z,7.10
2018-01-24T10:58:46.126Z,12.40
2018-01-24T11:01:13.677Z,9.50
2018-01-24T11:03:41.212Z,7.77
2018-01-24T11:06:09.573Z,7.67
2018-01-24T11:08:37.090Z,8.47
2018-01-24T11:11:04.633Z,7.17
2018-01-24T11:13:32.155Z,6.60
2018-01-24T11:15:59.697Z,11.60
2018-01-24T11:18:27.231Z,10.67
2018-01-24T11:20:54.789Z,13.27
2018-01-24T11:23:22.305Z,8.40
2018-01-24T11:25:50.620Z,7.60
2018-01-24T11:28:18.191Z,8.23
2018-01-24T11:30:45.701Z,6.87
2018-01-24T11:33:13.995Z,8.20
2018-01-24T11:35:41.545Z,7.80
2018-01-24T11:38:09.830Z,7.60
2018-01-24T11:40:38.138Z,7.30
2018-01-24T11:43:05.658Z,6.87
2018-01-24T11:45:33.973Z,7.43
2018-01-24T11:48:01.493Z,7.13
2018-01-24T11:50:29.816Z,8.67
2018-01-24T11:52:57.343Z,6.83
2018-01-24T11:55:24.898Z,10.80
2018-01-24T11:57:53.185Z,5.67
2018-01-24T12:00:20.732Z,7.50
2018-01-24T12:02:49.019Z,6.43
2018-01-24T12:05:16.565Z,5.63
2018-01-24T12:07:44.849Z,9.47
2018-01-24T12:10:13.165Z,7.50
2018-01-24T12:12:40.694Z,7.70
2018-01-24T12:15:08.230Z,5.53
2018-01-24T12:17:36.552Z,5.60
2018-01-24T12:20:04.073Z,5.30
2018-01-24T12:22:32.400Z,14.73
2018-01-24T12:24:59.938Z,5.73
2018-01-24T12:27:27.491Z,6.60
2018-01-24T12:29:55.023Z,6.60
2018-01-24T12:32:23.336Z,9.13
2018-01-24T12:34:50.870Z,8.33
2018-01-24T12:37:19.185Z,5.33
2018-01-24T12:39:46.717Z,12.10
2018-01-24T12:42:14.269Z,5.50
2018-01-24T12:44:42.557Z,5.37
2018-01-24T12:47:10.110Z,4.90
2018-01-24T12:49:38.401Z,7.80
2018-01-24T12:52:05.949Z,6.53
2018-01-24T12:54:34.229Z,4.87
2018-01-24T12:57:01.787Z,4.13
2018-01-24T12:59:29.325Z,7.70
2018-01-24T13:02:03.379Z,6.00
2018-01-24T13:04:30.906Z,4.73
2018-01-24T13:06:59.225Z,4.50
2018-01-24T13:09:26.753Z,8.87
2018-01-24T13:11:55.069Z,4.17
2018-01-24T13:14:22.600Z,5.80
2018-01-24T13:16:50.157Z,3.93
2018-01-24T13:19:17.682Z,5.03
2018-01-24T13:21:45.238Z,6.27
2018-01-24T13:24:12.864Z,5.00
2018-01-24T13:26:40.436Z,5.43
2018-01-24T13:29:07.965Z,4.70
2018-01-24T13:31:35.519Z,4.30
2018-01-24T13:34:03.042Z,5.33
2018-01-24T13:36:30.602Z,11.10
2018-01-24T13:38:58.135Z,3.30
2018-01-24T13:41:25.688Z,3.53
2018-01-24T13:43:53.209Z,3.70
2018-01-24T13:46:20.754Z,4.80
2018-01-24T13:48:49.057Z,3.97
2018-01-24T13:51:16.610Z,3.40
2018-01-24T13:53:44.138Z,5.40
2018-01-24T13:56:11.701Z,3.70
2018-01-24T13:58:39.232Z,3.77
2018-01-24T14:01:06.790Z,5.80
2018-01-24T14:03:34.319Z,3.40
2018-01-24T14:06:01.870Z,3.43
2018-01-24T14:08:29.397Z,4.87
2018-01-24T14:10:57.719Z,3.23
2018-01-24T14:13:25.256Z,4.00
2018-01-24T14:15:52.822Z,3.17
2018-01-24T14:18:20.351Z,4.10
2018-01-24T14:20:47.897Z,3.80
2018-01-24T14:23:15.426Z,4.13
2018-01-24T14:25:42.953Z,5.20
2018-01-24T14:28:10.501Z,9.47
2018-01-24T14:30:38.801Z,6.70
2018-01-24T14:33:06.357Z,5.30
2018-01-24T14:35:33.909Z,4.20
2018-01-24T14:38:02.221Z,5.40
2018-01-24T14:40:29.756Z,5.60
2018-01-24T14:42:57.318Z,4.10
2018-01-24T14:45:24.837Z,5.00
2018-01-24T14:47:54.959Z,4.77
2018-01-24T14:50:20.710Z,5.70
2018-01-24T14:52:48.253Z,6.90
2018-01-24T14:55:16.548Z,3.83
2018-01-24T14:57:44.133Z,3.53
2018-01-24T15:00:11.665Z,5.17
2018-01-24T15:02:39.226Z,6.27
2018-01-24T15:05:06.803Z,4.37
2018-01-24T15:07:34.386Z,6.50
2018-01-24T15:10:01.895Z,7.97
2018-01-24T15:12:30.218Z,7.17
2018-01-24T15:14:57.746Z,4.63
2018-01-24T15:17:25.353Z,5.83
2018-01-24T15:19:52.859Z,4.37
2018-01-24T15:22:20.410Z,4.30
2018-01-24T15:24:48.709Z,7.53
2018-01-24T15:27:21.366Z,5.03
2018-01-24T15:29:49.665Z,3.03
2018-01-24T15:32:17.219Z,6.70
2018-01-24T15:34:44.757Z,5.80
2018-01-24T15:37:13.089Z,4.30
2018-01-24T15:39:40.618Z,3.50
2018-01-24T15:42:08.174Z,3.97
2018-01-24T15:44:35.715Z,7.47
2018-01-24T15:47:04.034Z,4.27
2018-01-24T15:49:31.561Z,4.57
2018-01-24T15:51:59.874Z,8.17
2018-01-24T15:54:27.410Z,13.50
2018-01-24T15:56:54.968Z,8.57
2018-01-24T15:59:22.498Z,10.30
2018-01-24T16:01:50.057Z,7.87
2018-01-24T16:04:17.589Z,5.90
2018-01-24T16:06:45.146Z,8.13
2018-01-24T16:09:13.442Z,4.20
2018-01-24T16:11:41.002Z,4.13
2018-01-24T16:14:08.533Z,4.23
2018-01-24T16:16:36.082Z,3.50
2018-01-24T16:19:03.613Z,4.63
2018-01-24T16:21:31.925Z,3.07
2018-01-24T16:23:59.465Z,3.10
2018-01-24T16:26:27.024Z,3.80
2018-01-24T16:28:54.566Z,3.23
2018-01-24T16:31:22.878Z,4.17
2018-01-24T16:33:50.451Z,3.63
2018-01-24T16:36:17.969Z,2.90
2018-01-24T16:38:45.501Z,3.27
2018-01-24T16:41:13.026Z,4.60
2018-01-24T16:43:40.579Z,4.43
2018-01-24T16:46:08.105Z,5.43
2018-01-24T16:48:36.435Z,3.30
2018-01-24T16:51:03.958Z,4.13
2018-01-24T16:53:31.505Z,4.80
2018-01-24T16:55:59.040Z,5.17
2018-01-24T16:58:27.362Z,5.70
2018-01-24T17:00:54.886Z,4.70
2018-01-24T17:03:23.202Z,5.17
2018-01-24T17:05:50.730Z,3.53
2018-01-24T17:08:19.041Z,4.13
2018-01-24T17:10:46.574Z,5.27
2018-01-24T17:13:14.125Z,6.47
2018-01-24T17:15:42.413Z,7.50
2018-01-24T17:18:09.958Z,7.17
2018-01-24T17:20:38.273Z,5.17
2018-01-24T17:23:05.810Z,7.03
2018-01-24T17:25:33.342Z,6.00
2018-01-24T17:28:00.887Z,6.07
2018-01-24T17:30:28.414Z,5.40
2018-01-24T17:32:55.953Z,5.37
2018-01-24T17:35:23.478Z,6.47
2018-01-24T17:37:51.034Z,5.57
2018-01-24T17:40:18.562Z,7.33
2018-01-24T17:42:46.109Z,7.43
2018-01-24T17:45:13.630Z,4.57
2018-01-24T17:47:41.944Z,4.10
2018-01-24T17:50:09.470Z,5.20
2018-01-24T17:52:37.787Z,4.77
2018-01-24T17:55:05.308Z,6.70
2018-01-24T17:57:33.630Z,4.63
2018-01-24T18:00:01.154Z,3.47
2018-01-24T18:02:28.706Z,6.43
2018-01-24T18:04:57.019Z,5.53
2018-01-24T18:07:24.564Z,6.87
2018-01-24T18:09:52.085Z,4.47
2018-01-24T18:12:19.646Z,5.10
2018-01-24T18:14:47.174Z,4.63
2018-01-24T18:17:14.727Z,13.83
2018-01-24T18:19:42.258Z,4.47
2018-01-24T18:22:09.803Z,6.60
2018-01-24T18:24:37.325Z,5.63
2018-01-24T18:27:04.866Z,5.30
2018-01-24T18:29:32.393Z,7.50
2018-01-24T18:31:59.934Z,6.80
2018-01-24T18:34:28.213Z,5.17
2018-01-24T18:36:56.525Z,4.00
2018-01-24T18:39:24.057Z,4.27
2018-01-24T18:41:51.611Z,10.90
2018-01-24T18:44:19.147Z,6.40
2018-01-24T18:46:46.674Z,8.80
2018-01-24T18:49:14.225Z,4.63
2018-01-24T18:51:41.741Z,4.63
2018-01-24T18:54:10.062Z,5.60
2018-01-24T18:56:37.587Z,6.53
2018-01-24T18:59:05.899Z,4.63
2018-01-24T19:01:33.431Z,5.47
2018-01-24T19:04:00.977Z,4.53
2018-01-24T19:06:29.265Z,6.20
2018-01-24T19:08:57.577Z,5.10
2018-01-24T19:11:25.110Z,5.23
2018-01-24T19:13:52.775Z,4.10
2018-01-24T19:16:20.307Z,7.27
2018-01-24T19:18:48.635Z,8.73
2018-01-24T19:21:16.159Z,6.00
2018-01-24T19:23:43.718Z,6.60
2018-01-24T19:26:12.005Z,4.60
2018-01-24T19:28:39.555Z,4.90
2018-01-24T19:31:07.086Z,6.83
2018-01-24T19:33:34.642Z,5.40
2018-01-24T19:36:02.162Z,8.50
2018-01-24T19:38:29.682Z,5.87
2018-01-24T19:40:58.001Z,6.43
2018-01-24T19:43:25.526Z,5.60
2018-01-24T19:45:53.846Z,7.47
2018-01-24T19:48:21.369Z,5.27
2018-01-24T19:50:48.913Z,5.33
2018-01-24T19:53:17.197Z,6.67
2018-01-24T19:55:45.531Z,4.63
2018-01-24T19:58:13.056Z,5.17
2018-01-24T20:00:40.606Z,6.80
2018-01-24T20:03:08.142Z,7.00
2018-01-24T20:05:36.453Z,6.13
2018-01-24T20:08:03.978Z,5.80
2018-01-24T20:10:32.294Z,5.90
2018-01-24T20:12:59.818Z,6.43
2018-01-24T20:15:28.130Z,7.60
2018-01-24T20:17:55.658Z,9.83
2018-01-24T20:20:23.986Z,10.47
2018-01-24T20:22:51.517Z,6.30
2018-01-24T20:25:19.070Z,7.53
2018-01-24T20:27:46.607Z,6.63
2018-01-24T20:30:14.930Z,7.00
2018-01-24T20:32:42.451Z,7.83
2018-01-24T20:35:10.761Z,6.13
2018-01-24T20:37:38.286Z,5.33
2018-01-24T20:40:06.610Z,9.97
2018-01-24T20:42:34.126Z,7.77
2018-01-24T20:45:02.418Z,7.27
2018-01-24T20:47:29.962Z,9.00
2018-01-24T20:49:58.254Z,11.57
2018-01-24T20:52:25.801Z,9.90
2018-01-24T20:54:54.094Z,9.13
2018-01-24T20:57:21.667Z,10.20
2018-01-24T20:59:49.189Z,9.70
2018-01-24T21:02:17.522Z,9.00
2018-01-24T21:04:45.046Z,8.17
2018-01-24T21:07:12.587Z,8.70
2018-01-24T21:09:40.885Z,8.33
2018-01-24T21:12:08.438Z,12.23
2018-01-24T21:14:36.725Z,15.10
2018-01-24T21:17:04.286Z,10.17
2018-01-24T21:19:31.811Z,11.80
2018-01-24T21:21:59.373Z,11.07
2018-01-24T21:24:26.899Z,14.07
2018-01-24T21:26:54.501Z,11.60
2018-01-24T21:29:34.851Z,16.23
2018-01-24T21:32:14.297Z,11.43
2018-01-24T21:34:54.394Z,11.03
2018-01-24T21:37:21.944Z,12.23
2018-01-24T21:39:49.474Z,7.37
2018-01-24T21:42:17.798Z,9.60
2018-01-24T21:44:45.342Z,10.50
2018-01-24T21:47:12.918Z,11.40
2018-01-24T21:49:41.075Z,9.13
2018-01-24T21:52:09.557Z,14.53
2018-01-24T21:54:37.578Z,9.50
2018-01-24T21:57:05.137Z,13.67
2018-01-24T21:59:32.658Z,9.90
2018-01-24T22:02:00.187Z,11.37
2018-01-24T22:04:28.510Z,10.53
2018-01-24T22:06:56.056Z,9.23
2018-01-24T22:09:23.626Z,14.73
2018-01-24T22:11:51.154Z,12.90
2018-01-24T22:14:18.706Z,8.27
2018-01-24T22:16:47.037Z,7.53
2018-01-24T22:19:14.594Z,11.60
2018-01-24T22:21:42.126Z,11.97
2018-01-24T22:24:09.680Z,9.57
2018-01-24T22:26:37.213Z,10.00
2018-01-24T22:29:05.546Z,8.20
2018-01-24T22:31:33.066Z,9.50
2018-01-24T22:34:00.622Z,11.90
2018-01-24T22:36:28.241Z,13.73
2018-01-24T22:38:55.842Z,13.10
2018-01-24T22:41:23.374Z,12.67
2018-01-24T22:43:51.752Z,12.77
2018-01-24T22:46:19.274Z,20.13
2018-01-24T22:48:46.819Z,14.83
2018-01-24T22:51:29.058Z,14.83
2018-01-24T22:53:56.607Z,12.17
2018-01-24T22:56:24.139Z,19.80
2018-01-24T22:58:51.686Z,15.90
2018-01-24T23:01:19.214Z,13.17
2018-01-24T23:03:46.770Z,11.77
2018-01-24T23:06:14.302Z,15.87
2018-01-24T23:08:41.827Z,13.67
2018-01-24T23:11:09.377Z,13.53
2018-01-24T23:13:37.661Z,17.20
2018-01-24T23:16:05.241Z,13.57
2018-01-24T23:18:32.786Z,12.77
2018-01-24T23:21:00.365Z,11.43
2018-01-24T23:23:27.894Z,11.40
2018-01-24T23:25:56.210Z,14.50
2018-01-24T23:28:24.510Z,15.60
2018-01-24T23:30:52.053Z,15.13
2018-01-24T23:33:19.573Z,14.40
2018-01-24T23:35:47.121Z,11.70
2018-01-24T23:38:15.414Z,14.00
2018-01-24T23:40:42.967Z,12.00
2018-01-24T23:43:10.488Z,10.63
2018-01-24T23:45:38.060Z,12.03
2018-01-24T23:48:05.618Z,11.40
2018-01-24T23:50:33.165Z,14.03
2018-01-24T23:53:00.694Z,11.97
2018-01-24T23:55:28.243Z,15.23
2018-01-24T23:57:55.819Z,17.77
